createdAt,value
2023-05-25T00:02:15.468Z,20.42
2023-05-25T00:04:48.385Z,20.42
2023-05-25T00:07:19.846Z,20.42
2023-05-25T00:09:48.870Z,20.42
2023-05-25T00:12:17.831Z,20.41
2023-05-25T00:14:47.525Z,20.41
2023-05-25T00:17:16.434Z,20.40
2023-05-25T00:19:44.152Z,20.40
2023-05-25T00:22:13.856Z,20.42
2023-05-25T00:24:40.843Z,20.43
2023-05-25T00:27:09.787Z,20.42
2023-05-25T00:29:36.707Z,20.42
2023-05-25T00:32:06.169Z,20.42
2023-05-25T00:34:32.838Z,20.42
2023-05-25T00:36:59.615Z,20.43
2023-05-25T00:39:26.408Z,20.41
2023-05-25T00:41:55.996Z,20.41
2023-05-25T00:44:24.907Z,20.38
2023-05-25T00:46:52.446Z,20.42
2023-05-25T00:49:24.486Z,20.43
2023-05-25T00:51:52.578Z,20.44
2023-05-25T00:54:19.602Z,20.45
2023-05-25T00:57:07.456Z,20.43
2023-05-25T00:59:37.078Z,20.42
2023-05-25T01:02:06.952Z,20.44
2023-05-25T01:04:35.020Z,20.46
2023-05-25T01:07:04.496Z,20.47
2023-05-25T01:09:31.389Z,20.47
2023-05-25T01:12:00.269Z,20.47
2023-05-25T01:14:29.288Z,20.48
2023-05-25T01:17:00.716Z,20.46
2023-05-25T01:19:27.407Z,20.44
2023-05-25T01:22:18.310Z,20.46
2023-05-25T01:24:49.687Z,20.46
2023-05-25T01:27:32.701Z,20.47
2023-05-25T01:29:59.871Z,20.46
2023-05-25T01:32:28.836Z,20.46
2023-05-25T01:35:01.269Z,20.48
2023-05-25T01:37:31.527Z,20.47
2023-05-25T01:40:00.630Z,20.49
2023-05-25T01:42:29.977Z,20.48
2023-05-25T01:44:58.843Z,20.50
2023-05-25T01:47:37.607Z,20.51
2023-05-25T01:50:27.160Z,20.48
2023-05-25T01:52:59.322Z,20.51
2023-05-25T01:55:29.225Z,20.51
2023-05-25T01:57:58.090Z,20.52
2023-05-25T02:00:32.257Z,20.53
2023-05-25T02:03:02.203Z,20.49
2023-05-25T02:05:31.661Z,20.51
2023-05-25T02:07:58.418Z,20.50
2023-05-25T02:10:27.424Z,20.51
2023-05-25T02:12:56.486Z,20.50
2023-05-25T02:15:23.490Z,20.51
2023-05-25T02:17:50.765Z,20.53
2023-05-25T02:20:19.701Z,20.55
2023-05-25T02:22:46.396Z,20.51
2023-05-25T02:25:13.378Z,20.53
2023-05-25T02:27:40.084Z,20.53
2023-05-25T02:30:07.837Z,20.54
2023-05-25T02:32:35.378Z,20.54
2023-05-25T02:35:04.242Z,20.54
2023-05-25T02:37:30.952Z,20.52
2023-05-25T02:39:57.748Z,20.55
2023-05-25T02:42:24.816Z,20.54
2023-05-25T02:44:53.772Z,20.52
2023-05-25T02:47:22.987Z,20.54
2023-05-25T02:49:52.357Z,20.54
2023-05-25T02:52:19.135Z,20.52
2023-05-25T02:54:45.956Z,20.52
2023-05-25T02:57:14.820Z,20.55
2023-05-25T02:59:41.514Z,20.52
2023-05-25T03:02:10.373Z,20.52
2023-05-25T03:04:38.985Z,20.52
2023-05-25T03:07:05.803Z,20.49
2023-05-25T03:09:32.545Z,20.50
2023-05-25T03:12:03.953Z,20.51
2023-05-25T03:14:30.652Z,20.53
2023-05-25T03:16:57.845Z,20.52
2023-05-25T03:19:24.648Z,20.50
2023-05-25T03:21:51.325Z,20.50
2023-05-25T03:24:20.142Z,20.51
2023-05-25T03:26:51.565Z,20.43
2023-05-25T03:29:18.197Z,20.52
2023-05-25T03:31:47.060Z,20.48
2023-05-25T03:34:13.748Z,20.48
2023-05-25T03:36:46.017Z,20.49
2023-05-25T03:39:15.653Z,20.49
2023-05-25T03:41:46.714Z,20.49
2023-05-25T03:44:18.099Z,20.50
2023-05-25T03:46:44.837Z,20.51
2023-05-25T03:49:14.038Z,20.51
2023-05-25T03:51:41.512Z,20.54
2023-05-25T03:54:08.270Z,20.51
2023-05-25T03:56:37.229Z,20.51
2023-05-25T03:59:08.664Z,20.52
2023-05-25T04:01:40.051Z,20.53
2023-05-25T04:04:08.915Z,20.52
2023-05-25T04:06:38.602Z,20.53
2023-05-25T04:09:07.460Z,20.55
2023-05-25T04:11:36.432Z,20.53
2023-05-25T04:14:05.279Z,20.52
2023-05-25T04:16:31.943Z,20.52
2023-05-25T04:19:03.316Z,20.53
2023-05-25T04:21:32.433Z,20.55
2023-05-25T04:23:59.224Z,20.51
2023-05-25T04:26:28.093Z,20.53
2023-05-25T04:29:00.371Z,20.52
2023-05-25T04:31:27.248Z,20.51
2023-05-25T04:33:56.191Z,20.51
2023-05-25T04:36:25.115Z,20.49
2023-05-25T04:38:54.848Z,20.40
2023-05-25T04:41:21.682Z,20.35
2023-05-25T04:44:05.807Z,20.28
2023-05-25T04:46:39.232Z,20.34
2023-05-25T04:49:09.900Z,20.37
2023-05-25T04:51:38.720Z,20.32
2023-05-25T04:54:06.077Z,20.32
2023-05-25T04:56:34.943Z,20.30
2023-05-25T04:59:04.030Z,20.18
2023-05-25T05:01:31.213Z,19.71
2023-05-25T05:04:00.168Z,19.65
2023-05-25T05:06:29.113Z,19.54
2023-05-25T05:08:57.945Z,19.74
2023-05-25T05:11:24.665Z,19.91
2023-05-25T05:13:51.413Z,19.50
2023-05-25T05:16:22.895Z,19.73
2023-05-25T05:18:51.949Z,19.84
2023-05-25T05:21:19.637Z,19.86
2023-05-25T05:23:52.269Z,19.89
2023-05-25T05:26:19.300Z,19.83
2023-05-25T05:28:48.278Z,19.89
2023-05-25T05:31:17.413Z,19.87
2023-05-25T05:33:44.296Z,19.78
2023-05-25T05:36:11.254Z,19.82
2023-05-25T05:38:40.410Z,19.89
2023-05-25T05:41:14.205Z,19.79
2023-05-25T05:43:44.204Z,19.83
2023-05-25T05:46:13.229Z,19.85
2023-05-25T05:48:42.492Z,19.91
2023-05-25T05:51:14.357Z,19.96
2023-05-25T05:53:41.047Z,19.98
2023-05-25T05:56:17.359Z,19.99
2023-05-25T05:58:47.575Z,19.91
2023-05-25T06:01:19.681Z,19.91
2023-05-25T06:03:48.762Z,19.96
2023-05-25T06:06:15.733Z,19.98
2023-05-25T06:08:47.564Z,19.97
2023-05-25T06:11:16.533Z,19.96
2023-05-25T06:13:46.675Z,19.99
2023-05-25T06:16:15.670Z,19.99
2023-05-25T06:18:42.444Z,20.02
2023-05-25T06:21:12.865Z,19.99
2023-05-25T06:23:39.995Z,20.03
2023-05-25T06:26:06.854Z,20.02
2023-05-25T06:28:33.589Z,20.04
2023-05-25T06:31:03.629Z,20.10
2023-05-25T06:33:33.212Z,20.15
2023-05-25T06:36:02.087Z,20.16
2023-05-25T06:38:29.229Z,20.16
2023-05-25T06:41:02.746Z,20.17
2023-05-25T06:43:32.339Z,20.23
2023-05-25T06:46:02.030Z,20.32
2023-05-25T06:48:28.834Z,20.36
2023-05-25T06:50:55.548Z,20.38
2023-05-25T06:53:24.414Z,20.41
2023-05-25T06:55:51.158Z,20.45
2023-05-25T06:58:17.941Z,20.48
2023-05-25T07:00:47.123Z,20.52
2023-05-25T07:03:14.057Z,20.55
2023-05-25T07:05:40.904Z,20.58
2023-05-25T07:08:07.664Z,20.55
2023-05-25T07:10:36.749Z,20.52
2023-05-25T07:13:03.491Z,20.52
2023-05-25T07:15:30.415Z,20.55
2023-05-25T07:17:57.457Z,20.57
2023-05-25T07:20:24.555Z,20.64
2023-05-25T07:22:53.622Z,20.66
2023-05-25T07:25:22.586Z,20.64
2023-05-25T07:27:50.481Z,20.67
2023-05-25T07:30:19.891Z,20.64
2023-05-25T07:32:46.680Z,20.62
2023-05-25T07:35:13.503Z,20.62
2023-05-25T07:37:41.133Z,20.66
2023-05-25T07:40:09.049Z,20.60
2023-05-25T07:42:36.436Z,20.67
2023-05-25T07:45:06.689Z,20.72
2023-05-25T07:47:35.736Z,20.72
2023-05-25T07:50:07.796Z,20.68
2023-05-25T07:52:34.466Z,20.73
2023-05-25T07:55:01.256Z,20.77
2023-05-25T07:57:29.779Z,20.78
2023-05-25T07:59:59.123Z,20.74
2023-05-25T08:02:32.147Z,20.70
2023-05-25T08:05:00.013Z,20.76
2023-05-25T08:07:26.757Z,20.82
2023-05-25T08:09:56.034Z,20.85
2023-05-25T08:14:59.411Z,20.77
2023-05-25T08:17:28.383Z,20.78
2023-05-25T08:19:57.582Z,20.81
2023-05-25T08:22:24.324Z,20.80
2023-05-25T08:24:53.449Z,20.77
2023-05-25T08:27:20.177Z,20.76
2023-05-25T08:29:49.001Z,20.74
2023-05-25T08:32:15.959Z,20.72
2023-05-25T08:34:44.787Z,20.71
2023-05-25T08:37:14.533Z,20.49
2023-05-25T08:39:41.683Z,20.51
2023-05-25T08:42:10.546Z,20.52
2023-05-25T08:44:40.399Z,20.54
2023-05-25T08:47:08.163Z,20.52
2023-05-25T08:49:41.334Z,20.56
2023-05-25T08:52:16.935Z,20.51
2023-05-25T08:54:44.289Z,20.54
2023-05-25T08:57:20.239Z,20.52
2023-05-25T08:59:52.466Z,20.53
2023-05-25T09:03:00.610Z,20.53
2023-05-25T09:05:29.996Z,20.48
2023-05-25T09:07:58.969Z,20.46
2023-05-25T09:10:27.850Z,20.42
2023-05-25T09:12:56.705Z,20.39
2023-05-25T09:15:28.153Z,20.37
2023-05-25T09:17:57.269Z,20.27
2023-05-25T09:20:31.594Z,20.29
2023-05-25T09:23:02.830Z,20.26
2023-05-25T09:25:29.504Z,20.26
2023-05-25T09:27:58.786Z,20.27
2023-05-25T09:30:32.908Z,20.26
2023-05-25T09:33:17.627Z,20.27
2023-05-25T09:35:45.458Z,20.25
2023-05-25T09:38:16.369Z,20.24
2023-05-25T09:40:44.085Z,20.21
2023-05-25T09:43:15.649Z,20.21
2023-05-25T09:45:46.639Z,20.20
2023-05-25T09:48:15.681Z,20.18
2023-05-25T09:50:45.459Z,20.17
2023-05-25T09:53:16.425Z,20.18
2023-05-25T09:55:53.189Z,20.17
2023-05-25T09:58:23.811Z,20.17
2023-05-25T10:00:55.568Z,20.20
2023-05-25T10:03:22.745Z,20.19
2023-05-25T10:05:52.176Z,20.23
2023-05-25T10:08:20.266Z,20.23
2023-05-25T10:10:50.296Z,20.17
2023-05-25T10:13:23.398Z,20.15
2023-05-25T10:15:53.089Z,20.18
2023-05-25T10:18:26.214Z,20.18
2023-05-25T10:21:06.575Z,20.18
2023-05-25T10:23:38.694Z,20.21
2023-05-25T10:26:08.770Z,20.19
2023-05-25T10:28:36.710Z,20.18
2023-05-25T10:31:03.746Z,20.20
2023-05-25T10:33:33.553Z,20.19
2023-05-25T10:36:09.345Z,20.19
2023-05-25T10:38:40.992Z,20.16
2023-05-25T10:41:11.630Z,20.17
2023-05-25T10:43:38.726Z,20.15
2023-05-25T10:46:08.625Z,20.13
2023-05-25T10:48:38.942Z,20.14
2023-05-25T10:51:08.213Z,20.21
2023-05-25T10:53:35.995Z,20.22
2023-05-25T10:56:08.873Z,20.27
2023-05-25T10:58:37.723Z,20.26
2023-05-25T11:01:11.001Z,20.16
2023-05-25T11:03:51.662Z,20.09
2023-05-25T11:06:21.108Z,20.07
2023-05-25T11:08:51.528Z,20.11
2023-05-25T11:11:21.092Z,20.08
2023-05-25T11:13:50.512Z,20.05
2023-05-25T11:16:25.177Z,20.04
2023-05-25T11:18:57.816Z,20.03
2023-05-25T11:21:27.575Z,20.03
2023-05-25T11:24:04.514Z,20.08
2023-05-25T11:26:37.506Z,20.12
2023-05-25T11:29:14.917Z,20.18
2023-05-25T11:31:43.707Z,20.20
2023-05-25T11:34:12.099Z,20.18
2023-05-25T11:36:39.395Z,20.22
2023-05-25T11:39:11.696Z,20.22
2023-05-25T11:41:49.759Z,20.23
2023-05-25T11:44:28.103Z,20.27
2023-05-25T11:46:58.199Z,20.23
2023-05-25T11:49:27.814Z,20.28
2023-05-25T11:51:56.377Z,20.27
2023-05-25T11:54:27.883Z,20.25
2023-05-25T11:56:57.464Z,20.26
2023-05-25T11:59:28.227Z,20.25
2023-05-25T12:02:03.213Z,20.25
2023-05-25T12:04:31.188Z,20.26
2023-05-25T12:07:07.043Z,20.26
2023-05-25T12:09:36.678Z,20.27
2023-05-25T12:12:06.685Z,20.28
2023-05-25T12:14:41.506Z,20.30
2023-05-25T12:17:10.556Z,20.31
2023-05-25T12:19:37.401Z,20.30
2023-05-25T12:22:04.406Z,20.32
2023-05-25T12:24:31.230Z,20.32
2023-05-25T12:26:58.814Z,20.32
2023-05-25T12:29:26.430Z,20.29
2023-05-25T12:31:53.165Z,20.28
2023-05-25T12:34:24.234Z,20.31
2023-05-25T12:36:54.918Z,20.30
2023-05-25T12:39:31.041Z,20.37
2023-05-25T12:41:59.514Z,20.37
2023-05-25T12:44:35.951Z,20.37
2023-05-25T12:47:24.298Z,20.35
2023-05-25T12:49:54.835Z,20.37
2023-05-25T12:52:37.410Z,20.38
2023-05-25T12:55:27.390Z,20.36
2023-05-25T12:58:09.046Z,20.33
2023-05-25T13:00:39.509Z,20.37
2023-05-25T13:03:09.178Z,20.37
2023-05-25T13:05:37.156Z,20.36
2023-05-25T13:08:04.460Z,20.36
2023-05-25T13:10:32.944Z,20.35
2023-05-25T13:13:03.876Z,20.34
2023-05-25T13:15:32.781Z,20.29
2023-05-25T13:17:59.632Z,20.32
2023-05-25T13:20:27.182Z,20.34
2023-05-25T13:22:56.184Z,20.36
2023-05-25T13:25:25.366Z,20.35
2023-05-25T13:27:52.802Z,20.36
2023-05-25T13:30:21.969Z,20.38
2023-05-25T13:32:51.851Z,20.38
2023-05-25T13:35:41.473Z,20.35
2023-05-25T13:38:10.446Z,20.38
2023-05-25T13:40:37.587Z,20.36
2023-05-25T13:43:07.073Z,20.37
2023-05-25T13:45:36.044Z,20.38
2023-05-25T13:48:07.592Z,20.38
2023-05-25T13:50:34.469Z,20.36
2023-05-25T13:53:01.168Z,20.37
2023-05-25T13:55:28.028Z,20.35
2023-05-25T13:57:54.840Z,20.37
2023-05-25T14:00:23.948Z,20.38
2023-05-25T14:02:50.908Z,20.35
2023-05-25T14:05:19.818Z,20.37
2023-05-25T14:07:49.691Z,20.37
2023-05-25T14:10:16.694Z,20.36
2023-05-25T14:12:46.114Z,20.35
2023-05-25T14:15:14.861Z,20.32
2023-05-25T14:17:41.695Z,20.34
2023-05-25T14:20:09.668Z,20.33
2023-05-25T14:22:41.232Z,20.29
2023-05-25T14:25:08.552Z,20.30
2023-05-25T14:27:37.452Z,20.35
2023-05-25T14:30:04.477Z,20.33
2023-05-25T14:32:31.183Z,20.34
2023-05-25T14:35:00.061Z,20.32
2023-05-25T14:37:29.102Z,20.32
2023-05-25T14:39:56.303Z,20.32
2023-05-25T14:42:23.484Z,20.30
2023-05-25T14:44:52.294Z,20.29
2023-05-25T14:47:19.109Z,20.31
2023-05-25T14:49:45.848Z,20.31
2023-05-25T14:52:12.568Z,20.36
2023-05-25T14:54:44.899Z,20.39
2023-05-25T14:57:12.394Z,20.39
2023-05-25T14:59:39.326Z,20.35
2023-05-25T15:02:06.217Z,20.36
2023-05-25T15:04:33.106Z,20.34
2023-05-25T15:07:00.034Z,20.36
2023-05-25T15:09:26.855Z,20.37
2023-05-25T15:11:56.292Z,20.35
2023-05-25T15:14:43.962Z,20.35
2023-05-25T15:17:12.912Z,20.42
2023-05-25T15:19:41.803Z,20.51
2023-05-25T15:22:08.497Z,20.57
2023-05-25T15:24:35.298Z,20.55
2023-05-25T15:27:07.262Z,20.51
2023-05-25T15:29:34.066Z,20.55
2023-05-25T15:32:03.511Z,20.57
2023-05-25T15:34:30.449Z,20.60
2023-05-25T15:37:00.421Z,20.60
2023-05-25T15:39:27.252Z,20.62
2023-05-25T15:41:54.528Z,20.66
2023-05-25T15:44:21.826Z,20.71
2023-05-25T15:46:50.752Z,20.71
2023-05-25T15:49:19.688Z,20.71
2023-05-25T15:51:46.415Z,20.71
2023-05-25T15:54:15.605Z,20.73
2023-05-25T15:56:42.499Z,20.73
2023-05-25T15:59:12.525Z,20.71
2023-05-25T16:01:41.778Z,20.70
2023-05-25T16:04:08.722Z,20.65
2023-05-25T16:06:36.333Z,20.68
2023-05-25T16:09:04.158Z,20.66
2023-05-25T16:11:33.267Z,20.64
2023-05-25T16:14:02.224Z,20.66
2023-05-25T16:16:29.722Z,20.63
2023-05-25T16:18:56.500Z,20.64
2023-05-25T16:21:27.972Z,20.63
2023-05-25T16:24:01.072Z,20.62
2023-05-25T16:26:29.975Z,20.61
2023-05-25T16:29:02.267Z,20.55
2023-05-25T16:31:28.933Z,20.59
2023-05-25T16:33:55.721Z,20.55
2023-05-25T16:36:26.699Z,20.58
2023-05-25T16:38:55.803Z,20.56
2023-05-25T16:41:22.914Z,20.53
2023-05-25T16:43:49.641Z,20.56
2023-05-25T16:46:18.699Z,20.59
2023-05-25T16:48:45.524Z,20.58
2023-05-25T16:51:16.823Z,20.59
2023-05-25T16:53:45.762Z,20.56
2023-05-25T16:56:12.533Z,20.59
2023-05-25T16:58:42.440Z,20.58
2023-05-25T17:01:09.260Z,20.49
2023-05-25T17:03:38.257Z,20.50
2023-05-25T17:06:05.268Z,20.53
2023-05-25T17:08:36.995Z,20.51
2023-05-25T17:11:05.977Z,20.50
2023-05-25T17:13:35.836Z,20.52
2023-05-25T17:16:05.352Z,20.53
2023-05-25T17:18:34.244Z,20.54
2023-05-25T17:21:05.734Z,20.52
2023-05-25T17:23:34.696Z,20.50
2023-05-25T17:26:06.039Z,20.47
2023-05-25T17:28:33.055Z,20.46
2023-05-25T17:31:02.654Z,20.42
2023-05-25T17:33:31.627Z,20.40
2023-05-25T17:36:00.573Z,20.39
2023-05-25T17:38:27.752Z,20.39
2023-05-25T17:40:56.620Z,20.32
2023-05-25T17:43:25.869Z,20.33
2023-05-25T17:45:52.853Z,20.30
2023-05-25T17:48:19.627Z,20.27
2023-05-25T17:50:48.470Z,20.27
2023-05-25T17:53:17.296Z,20.24
2023-05-25T17:55:44.149Z,20.22
2023-05-25T17:58:13.158Z,20.17
2023-05-25T18:00:42.036Z,20.15
2023-05-25T18:03:11.017Z,20.12
2023-05-25T18:05:38.681Z,20.12
2023-05-25T18:08:07.896Z,20.12
2023-05-25T18:10:36.673Z,20.10
2023-05-25T18:13:03.373Z,20.08
2023-05-25T18:15:34.715Z,20.04
2023-05-25T18:18:03.682Z,20.04
2023-05-25T18:20:32.574Z,20.03
2023-05-25T18:22:59.490Z,20.03
2023-05-25T18:25:26.314Z,20.00
2023-05-25T18:27:52.974Z,19.97
2023-05-25T18:30:19.684Z,20.01
2023-05-25T18:32:51.118Z,20.00
2023-05-25T18:35:23.201Z,19.99
2023-05-25T18:37:49.965Z,19.97
2023-05-25T18:40:19.103Z,19.92
2023-05-25T18:42:45.813Z,19.95
2023-05-25T18:45:14.735Z,19.94
2023-05-25T18:47:44.116Z,19.93
2023-05-25T18:50:12.451Z,19.92
2023-05-25T18:52:42.135Z,19.89
2023-05-25T18:55:09.134Z,19.90
2023-05-25T18:57:38.287Z,19.90
2023-05-25T19:00:11.189Z,19.86
2023-05-25T19:02:38.889Z,19.85
2023-05-25T19:05:06.468Z,19.85
2023-05-25T19:07:37.765Z,19.84
2023-05-25T19:10:08.886Z,19.81
2023-05-25T19:12:35.961Z,19.81
2023-05-25T19:15:06.125Z,19.78
2023-05-25T19:17:38.000Z,19.76
2023-05-25T19:20:04.986Z,19.74
2023-05-25T19:22:33.836Z,19.72
2023-05-25T19:25:01.312Z,19.71
2023-05-25T19:27:33.317Z,19.69
2023-05-25T19:30:02.212Z,19.68
2023-05-25T19:32:33.686Z,19.67
2023-05-25T19:35:05.064Z,19.66
2023-05-25T19:37:34.490Z,19.65
2023-05-25T19:40:03.884Z,19.65
2023-05-25T19:42:35.764Z,19.63
2023-05-25T19:45:07.226Z,19.61
2023-05-25T19:47:33.984Z,19.61
2023-05-25T19:50:02.901Z,19.60
2023-05-25T19:52:31.886Z,19.60
2023-05-25T19:54:58.541Z,19.61
2023-05-25T19:57:27.346Z,19.62
2023-05-25T19:59:54.065Z,19.61
2023-05-25T20:02:24.197Z,19.62
2023-05-25T20:04:53.193Z,19.61
2023-05-25T20:07:22.164Z,19.61
2023-05-25T20:09:51.050Z,19.62
2023-05-25T20:12:17.812Z,19.64
2023-05-25T20:14:47.014Z,19.63
2023-05-25T20:17:15.923Z,19.62
2023-05-25T20:19:42.693Z,19.59
2023-05-25T20:22:11.517Z,19.62
2023-05-25T20:24:41.359Z,19.61
2023-05-25T20:27:10.408Z,19.59
2023-05-25T20:29:40.262Z,19.62
2023-05-25T20:32:11.976Z,19.61
2023-05-25T20:34:41.700Z,19.61
2023-05-25T20:37:13.094Z,19.61
2023-05-25T20:39:42.680Z,19.63
2023-05-25T20:42:14.016Z,19.63
2023-05-25T20:44:40.758Z,19.63
2023-05-25T20:47:10.591Z,19.64
2023-05-25T20:49:37.284Z,19.65
2023-05-25T20:52:04.236Z,19.65
2023-05-25T20:54:31.055Z,19.66
2023-05-25T20:56:57.811Z,19.65
2023-05-25T20:59:24.626Z,19.65
2023-05-25T21:01:57.022Z,19.64
2023-05-25T21:04:23.799Z,19.64
2023-05-25T21:06:52.966Z,19.67
2023-05-25T21:09:22.563Z,19.70
2023-05-25T21:11:49.570Z,19.71
2023-05-25T21:14:16.692Z,19.73
2023-05-25T21:16:50.116Z,19.74
2023-05-25T21:19:17.201Z,19.75
2023-05-25T21:21:46.081Z,19.79
2023-05-25T21:24:12.953Z,19.80
2023-05-25T21:26:44.975Z,19.81
2023-05-25T21:29:11.717Z,19.83
2023-05-25T21:31:38.444Z,19.84
2023-05-25T21:34:05.181Z,19.85
2023-05-25T21:36:33.978Z,19.86
2023-05-25T21:39:02.830Z,19.86
2023-05-25T21:41:32.125Z,19.88
2023-05-25T21:44:01.004Z,19.88
2023-05-25T21:46:27.765Z,19.87
2023-05-25T21:48:59.229Z,19.86
2023-05-25T21:51:30.049Z,19.93
2023-05-25T21:53:58.938Z,19.93
2023-05-25T21:56:27.774Z,19.94
2023-05-25T21:58:55.043Z,19.96
2023-05-25T22:01:24.813Z,19.96
2023-05-25T22:03:53.738Z,19.96
2023-05-25T22:06:20.460Z,19.97
2023-05-25T22:08:49.317Z,19.98
2023-05-25T22:11:20.678Z,19.97
2023-05-25T22:13:52.090Z,19.99
2023-05-25T22:16:18.903Z,20.00
2023-05-25T22:18:50.358Z,20.00
2023-05-25T22:21:17.044Z,19.95
2023-05-25T22:23:43.712Z,20.00
2023-05-25T22:26:15.084Z,20.02
2023-05-25T22:28:42.023Z,20.00
2023-05-25T22:31:09.187Z,20.02
2023-05-25T22:33:35.994Z,20.02
2023-05-25T22:36:08.080Z,20.03
2023-05-25T22:38:34.871Z,20.03
2023-05-25T22:41:11.380Z,20.04
2023-05-25T22:43:40.464Z,20.03
2023-05-25T22:46:09.705Z,20.04
2023-05-25T22:48:38.745Z,20.04
2023-05-25T22:51:10.541Z,20.04
2023-05-25T22:53:39.353Z,20.05
2023-05-25T22:56:06.069Z,20.05
2023-05-25T22:58:35.084Z,20.06
2023-05-25T23:01:01.688Z,20.06
2023-05-25T23:03:30.871Z,20.07
2023-05-25T23:05:59.789Z,20.08
2023-05-25T23:08:31.868Z,20.08
2023-05-25T23:11:00.748Z,20.09
2023-05-25T23:13:27.855Z,20.09
2023-05-25T23:15:55.477Z,20.09
2023-05-25T23:18:22.249Z,20.09
2023-05-25T23:20:51.088Z,20.09
2023-05-25T23:23:20.794Z,20.10
2023-05-25T23:25:47.475Z,20.10
2023-05-25T23:28:16.849Z,20.11
2023-05-25T23:30:45.724Z,20.10
2023-05-25T23:33:12.385Z,20.11
2023-05-25T23:35:39.051Z,20.09
2023-05-25T23:38:06.202Z,20.12
2023-05-25T23:40:33.345Z,20.11
2023-05-25T23:43:01.231Z,20.11
2023-05-25T23:45:27.967Z,20.13
2023-05-25T23:47:56.811Z,20.14
2023-05-25T23:50:23.577Z,20.13
2023-05-25T23:52:52.377Z,20.14
2023-05-25T23:55:19.278Z,20.12
2023-05-25T23:57:48.290Z,20.14
